sensor_id;sensor_type;location;lat;lon;timestamp;temperature;humidity
23723;DHT22;12042;52.136;5.584;2022-07-30T00:01:41;19.30;99.90
23723;DHT22;12042;52.136;5.584;2022-07-30T00:04:07;19.40;99.90
23723;DHT22;12042;52.136;5.584;2022-07-30T00:06:32;19.20;99.90
23723;DHT22;12042;52.136;5.584;2022-07-30T00:08:58;19.20;99.90
23723;DHT22;12042;52.136;5.584;2022-07-30T00:11:24;19.40;99.90
23723;DHT22;12042;52.136;5.584;2022-07-30T00:13:50;19.20;99.90
23723;DHT22;12042;52.136;5.584;2022-07-30T00:16:16;19.10;99.90
23723;DHT22;12042;52.136;5.584;2022-07-30T00:18:41;19.10;99.90
23723;DHT22;12042;52.136;5.584;2022-07-30T00:21:07;19.20;99.90
23723;DHT22;12042;52.136;5.584;2022-07-30T00:23:33;19.00;99.90
23723;DHT22;12042;52.136;5.584;2022-07-30T00:25:58;19.00;99.90
23723;DHT22;12042;52.136;5.584;2022-07-30T00:28:24;19.40;99.90
23723;DHT22;12042;52.136;5.584;2022-07-30T00:30:50;19.10;99.90
23723;DHT22;12042;52.136;5.584;2022-07-30T00:33:15;19.00;99.90
23723;DHT22;12042;52.136;5.584;2022-07-30T00:35:41;19.00;99.90
23723;DHT22;12042;52.136;5.584;2022-07-30T00:38:07;19.00;99.90
23723;DHT22;12042;52.136;5.584;2022-07-30T00:40:32;19.20;99.90
23723;DHT22;12042;52.136;5.584;2022-07-30T00:42:58;18.80;99.90
23723;DHT22;12042;52.136;5.584;2022-07-30T00:45:24;18.80;99.90
23723;DHT22;12042;52.136;5.584;2022-07-30T00:47:49;18.80;99.90
23723;DHT22;12042;52.136;5.584;2022-07-30T00:50:15;18.90;99.90
23723;DHT22;12042;52.136;5.584;2022-07-30T00:52:41;18.80;99.90
23723;DHT22;12042;52.136;5.584;2022-07-30T00:55:09;18.90;99.90
23723;DHT22;12042;52.136;5.584;2022-07-30T00:57:35;18.80;99.90
23723;DHT22;12042;52.136;5.584;2022-07-30T01:00:03;18.80;99.90
23723;DHT22;12042;52.136;5.584;2022-07-30T01:02:29;18.70;99.90
23723;DHT22;12042;52.136;5.584;2022-07-30T01:04:54;18.50;99.90
23723;DHT22;12042;52.136;5.584;2022-07-30T01:07:20;18.50;99.90
23723;DHT22;12042;52.136;5.584;2022-07-30T01:09:45;18.50;99.90
23723;DHT22;12042;52.136;5.584;2022-07-30T01:12:14;18.70;99.90
23723;DHT22;12042;52.136;5.584;2022-07-30T01:14:41;18.40;99.90
23723;DHT22;12042;52.136;5.584;2022-07-30T01:17:07;18.40;99.90
23723;DHT22;12042;52.136;5.584;2022-07-30T01:19:35;18.40;99.90
23723;DHT22;12042;52.136;5.584;2022-07-30T01:22:32;18.40;99.90
23723;DHT22;12042;52.136;5.584;2022-07-30T01:27:30;18.30;99.90
23723;DHT22;12042;52.136;5.584;2022-07-30T01:29:57;18.60;99.90
23723;DHT22;12042;52.136;5.584;2022-07-30T01:32:25;18.40;99.90
23723;DHT22;12042;52.136;5.584;2022-07-30T01:34:52;18.30;99.90
23723;DHT22;12042;52.136;5.584;2022-07-30T01:37:21;18.40;99.90
23723;DHT22;12042;52.136;5.584;2022-07-30T01:39:48;18.40;99.90
23723;DHT22;12042;52.136;5.584;2022-07-30T01:42:16;18.10;99.90
23723;DHT22;12042;52.136;5.584;2022-07-30T01:44:44;17.80;99.90
23723;DHT22;12042;52.136;5.584;2022-07-30T01:47:13;17.90;99.90
23723;DHT22;12042;52.136;5.584;2022-07-30T01:49:40;18.10;99.90
23723;DHT22;12042;52.136;5.584;2022-07-30T01:52:07;18.10;99.90
23723;DHT22;12042;52.136;5.584;2022-07-30T01:54:35;18.10;99.90
23723;DHT22;12042;52.136;5.584;2022-07-30T01:57:03;18.00;99.90
23723;DHT22;12042;52.136;5.584;2022-07-30T01:59:32;18.00;99.90
23723;DHT22;12042;52.136;5.584;2022-07-30T02:01:59;18.00;99.90
23723;DHT22;12042;52.136;5.584;2022-07-30T02:04:25;18.00;99.90
23723;DHT22;12042;52.136;5.584;2022-07-30T02:07:05;18.00;99.90
23723;DHT22;12042;52.136;5.584;2022-07-30T02:09:42;18.10;99.90
23723;DHT22;12042;52.136;5.584;2022-07-30T02:12:10;17.90;99.90
23723;DHT22;12042;52.136;5.584;2022-07-30T02:15:08;18.00;99.90
23723;DHT22;12042;52.136;5.584;2022-07-30T02:18:10;17.90;99.90
23723;DHT22;12042;52.136;5.584;2022-07-30T02:20:38;17.80;99.90
23723;DHT22;12042;52.136;5.584;2022-07-30T02:23:09;18.00;99.90
23723;DHT22;12042;52.136;5.584;2022-07-30T02:25:39;17.90;99.90
23723;DHT22;12042;52.136;5.584;2022-07-30T02:28:09;18.20;99.90
23723;DHT22;12042;52.136;5.584;2022-07-30T02:30:44;17.90;99.90
23723;DHT22;12042;52.136;5.584;2022-07-30T02:33:13;17.90;99.90
23723;DHT22;12042;52.136;5.584;2022-07-30T02:35:40;17.70;99.90
23723;DHT22;12042;52.136;5.584;2022-07-30T02:38:07;17.80;99.90
23723;DHT22;12042;52.136;5.584;2022-07-30T02:40:33;17.80;99.90
23723;DHT22;12042;52.136;5.584;2022-07-30T02:43:00;17.80;99.90
23723;DHT22;12042;52.136;5.584;2022-07-30T02:45:26;18.10;99.90
23723;DHT22;12042;52.136;5.584;2022-07-30T02:48:00;18.00;99.90
23723;DHT22;12042;52.136;5.584;2022-07-30T02:50:27;17.90;99.90
23723;DHT22;12042;52.136;5.584;2022-07-30T02:52:53;17.80;99.90
23723;DHT22;12042;52.136;5.584;2022-07-30T02:55:21;17.70;99.90
23723;DHT22;12042;52.136;5.584;2022-07-30T02:57:49;18.00;99.90
23723;DHT22;12042;52.136;5.584;2022-07-30T03:00:16;17.80;99.90
23723;DHT22;12042;52.136;5.584;2022-07-30T03:02:42;17.80;99.90
23723;DHT22;12042;52.136;5.584;2022-07-30T03:05:09;17.80;99.90
23723;DHT22;12042;52.136;5.584;2022-07-30T03:07:35;17.80;99.90
23723;DHT22;12042;52.136;5.584;2022-07-30T03:10:02;17.70;99.90
23723;DHT22;12042;52.136;5.584;2022-07-30T03:12:29;17.60;99.90
23723;DHT22;12042;52.136;5.584;2022-07-30T03:14:57;17.50;99.90
23723;DHT22;12042;52.136;5.584;2022-07-30T03:17:25;17.60;99.90
23723;DHT22;12042;52.136;5.584;2022-07-30T03:19:54;17.60;99.90
23723;DHT22;12042;52.136;5.584;2022-07-30T03:22:20;17.40;99.90
23723;DHT22;12042;52.136;5.584;2022-07-30T03:24:47;17.50;99.90
23723;DHT22;12042;52.136;5.584;2022-07-30T03:27:15;17.30;99.90
23723;DHT22;12042;52.136;5.584;2022-07-30T03:29:42;17.50;99.90
23723;DHT22;12042;52.136;5.584;2022-07-30T03:32:09;17.40;99.90
23723;DHT22;12042;52.136;5.584;2022-07-30T03:34:35;17.40;99.90
23723;DHT22;12042;52.136;5.584;2022-07-30T03:37:05;17.40;99.90
23723;DHT22;12042;52.136;5.584;2022-07-30T03:39:34;17.40;99.90
23723;DHT22;12042;52.136;5.584;2022-07-30T03:42:02;17.40;99.90
23723;DHT22;12042;52.136;5.584;2022-07-30T03:44:29;17.30;99.90
23723;DHT22;12042;52.136;5.584;2022-07-30T03:46:55;17.40;99.90
23723;DHT22;12042;52.136;5.584;2022-07-30T03:49:22;17.60;99.90
23723;DHT22;12042;52.136;5.584;2022-07-30T03:51:48;17.30;99.90
23723;DHT22;12042;52.136;5.584;2022-07-30T03:54:14;17.40;99.90
23723;DHT22;12042;52.136;5.584;2022-07-30T03:56:41;17.20;99.90
23723;DHT22;12042;52.136;5.584;2022-07-30T03:59:07;17.30;99.90
23723;DHT22;12042;52.136;5.584;2022-07-30T04:01:33;17.50;99.90
23723;DHT22;12042;52.136;5.584;2022-07-30T04:04:09;17.20;99.90
23723;DHT22;12042;52.136;5.584;2022-07-30T04:06:36;17.30;99.90
23723;DHT22;12042;52.136;5.584;2022-07-30T04:09:06;17.20;99.90
23723;DHT22;12042;52.136;5.584;2022-07-30T04:11:32;17.20;99.90
23723;DHT22;12042;52.136;5.584;2022-07-30T04:13:58;17.20;99.90
23723;DHT22;12042;52.136;5.584;2022-07-30T04:16:38;17.30;99.90
23723;DHT22;12042;52.136;5.584;2022-07-30T04:19:14;17.50;99.90
23723;DHT22;12042;52.136;5.584;2022-07-30T04:21:41;17.10;99.90
23723;DHT22;12042;52.136;5.584;2022-07-30T04:24:08;17.00;99.90
23723;DHT22;12042;52.136;5.584;2022-07-30T04:26:36;17.40;99.90
23723;DHT22;12042;52.136;5.584;2022-07-30T04:29:05;16.90;99.90
23723;DHT22;12042;52.136;5.584;2022-07-30T04:31:31;17.50;99.90
23723;DHT22;12042;52.136;5.584;2022-07-30T04:34:02;16.80;99.90
23723;DHT22;12042;52.136;5.584;2022-07-30T04:36:29;17.00;99.90
23723;DHT22;12042;52.136;5.584;2022-07-30T04:38:56;17.40;99.90
23723;DHT22;12042;52.136;5.584;2022-07-30T04:41:21;17.00;99.90
23723;DHT22;12042;52.136;5.584;2022-07-30T04:43:47;17.00;99.90
23723;DHT22;12042;52.136;5.584;2022-07-30T04:46:13;16.90;99.90
23723;DHT22;12042;52.136;5.584;2022-07-30T04:48:39;17.30;99.90
23723;DHT22;12042;52.136;5.584;2022-07-30T04:51:11;17.20;99.90
23723;DHT22;12042;52.136;5.584;2022-07-30T04:53:37;17.10;99.90
23723;DHT22;12042;52.136;5.584;2022-07-30T04:56:05;17.00;99.90
23723;DHT22;12042;52.136;5.584;2022-07-30T04:58:32;16.90;99.90
23723;DHT22;12042;52.136;5.584;2022-07-30T05:00:59;16.80;99.90
23723;DHT22;12042;52.136;5.584;2022-07-30T05:03:28;17.40;99.90
23723;DHT22;12042;52.136;5.584;2022-07-30T05:05:55;16.90;99.90
23723;DHT22;12042;52.136;5.584;2022-07-30T05:08:25;16.90;99.90
23723;DHT22;12042;52.136;5.584;2022-07-30T05:10:53;16.80;99.90
23723;DHT22;12042;52.136;5.584;2022-07-30T05:13:19;17.00;99.90
23723;DHT22;12042;52.136;5.584;2022-07-30T05:15:44;16.80;99.90
23723;DHT22;12042;52.136;5.584;2022-07-30T05:18:10;16.90;99.90
23723;DHT22;12042;52.136;5.584;2022-07-30T05:20:36;17.00;99.90
23723;DHT22;12042;52.136;5.584;2022-07-30T05:23:03;16.80;99.90
23723;DHT22;12042;52.136;5.584;2022-07-30T05:25:28;16.90;99.90
23723;DHT22;12042;52.136;5.584;2022-07-30T05:27:54;16.80;99.90
23723;DHT22;12042;52.136;5.584;2022-07-30T05:30:21;17.20;99.90
23723;DHT22;12042;52.136;5.584;2022-07-30T05:32:47;17.10;99.90
23723;DHT22;12042;52.136;5.584;2022-07-30T05:35:12;16.80;99.90
23723;DHT22;12042;52.136;5.584;2022-07-30T05:37:38;16.90;99.90
23723;DHT22;12042;52.136;5.584;2022-07-30T05:40:04;17.20;99.90
23723;DHT22;12042;52.136;5.584;2022-07-30T05:42:30;17.00;99.90
23723;DHT22;12042;52.136;5.584;2022-07-30T05:44:55;17.10;99.90
23723;DHT22;12042;52.136;5.584;2022-07-30T05:47:21;17.10;99.90
23723;DHT22;12042;52.136;5.584;2022-07-30T05:49:47;16.90;99.90
23723;DHT22;12042;52.136;5.584;2022-07-30T05:52:13;17.20;99.90
23723;DHT22;12042;52.136;5.584;2022-07-30T05:54:38;17.00;99.90
23723;DHT22;12042;52.136;5.584;2022-07-30T05:57:04;17.20;99.90
23723;DHT22;12042;52.136;5.584;2022-07-30T05:59:29;17.10;99.90
23723;DHT22;12042;52.136;5.584;2022-07-30T06:01:55;17.40;99.90
23723;DHT22;12042;52.136;5.584;2022-07-30T06:04:21;17.10;99.90
23723;DHT22;12042;52.136;5.584;2022-07-30T06:06:46;17.20;99.90
23723;DHT22;12042;52.136;5.584;2022-07-30T06:09:13;17.30;99.90
23723;DHT22;12042;52.136;5.584;2022-07-30T06:11:38;17.50;99.90
23723;DHT22;12042;52.136;5.584;2022-07-30T06:14:04;17.40;99.90
23723;DHT22;12042;52.136;5.584;2022-07-30T06:16:30;17.50;99.90
23723;DHT22;12042;52.136;5.584;2022-07-30T06:18:55;17.70;99.90
23723;DHT22;12042;52.136;5.584;2022-07-30T06:21:21;17.50;99.90
23723;DHT22;12042;52.136;5.584;2022-07-30T06:23:46;17.70;99.90
23723;DHT22;12042;52.136;5.584;2022-07-30T06:26:13;17.60;99.90
23723;DHT22;12042;52.136;5.584;2022-07-30T06:28:38;17.90;99.90
23723;DHT22;12042;52.136;5.584;2022-07-30T06:31:05;17.70;99.90
23723;DHT22;12042;52.136;5.584;2022-07-30T06:33:31;17.90;99.90
23723;DHT22;12042;52.136;5.584;2022-07-30T06:35:56;17.70;99.90
23723;DHT22;12042;52.136;5.584;2022-07-30T06:38:22;17.60;99.90
23723;DHT22;12042;52.136;5.584;2022-07-30T06:40:47;17.80;99.90
23723;DHT22;12042;52.136;5.584;2022-07-30T06:43:13;17.90;99.90
23723;DHT22;12042;52.136;5.584;2022-07-30T06:45:39;17.70;99.90
23723;DHT22;12042;52.136;5.584;2022-07-30T06:48:04;18.00;99.90
23723;DHT22;12042;52.136;5.584;2022-07-30T06:50:30;18.20;99.90
23723;DHT22;12042;52.136;5.584;2022-07-30T06:52:55;18.20;99.90
23723;DHT22;12042;52.136;5.584;2022-07-30T06:55:21;18.10;99.90
23723;DHT22;12042;52.136;5.584;2022-07-30T06:57:47;18.10;99.90
23723;DHT22;12042;52.136;5.584;2022-07-30T07:00:13;18.20;99.90
23723;DHT22;12042;52.136;5.584;2022-07-30T07:02:38;18.40;99.90
23723;DHT22;12042;52.136;5.584;2022-07-30T07:05:04;18.20;99.90
23723;DHT22;12042;52.136;5.584;2022-07-30T07:07:33;18.50;99.90
23723;DHT22;12042;52.136;5.584;2022-07-30T07:09:59;18.60;99.90
23723;DHT22;12042;52.136;5.584;2022-07-30T07:12:24;18.50;99.90
23723;DHT22;12042;52.136;5.584;2022-07-30T07:14:50;18.70;99.90
23723;DHT22;12042;52.136;5.584;2022-07-30T07:17:15;18.60;99.90
23723;DHT22;12042;52.136;5.584;2022-07-30T07:19:42;18.70;99.90
23723;DHT22;12042;52.136;5.584;2022-07-30T07:22:08;19.10;99.90
23723;DHT22;12042;52.136;5.584;2022-07-30T07:24:36;18.80;99.90
23723;DHT22;12042;52.136;5.584;2022-07-30T07:27:02;18.90;99.90
23723;DHT22;12042;52.136;5.584;2022-07-30T07:29:27;19.10;99.90
23723;DHT22;12042;52.136;5.584;2022-07-30T07:31:57;19.30;99.90
23723;DHT22;12042;52.136;5.584;2022-07-30T07:34:26;19.20;99.90
23723;DHT22;12042;52.136;5.584;2022-07-30T07:37:06;19.10;99.90
23723;DHT22;12042;52.136;5.584;2022-07-30T08:00:08;19.50;99.90
23723;DHT22;12042;52.136;5.584;2022-07-30T08:02:34;19.90;99.90
23723;DHT22;12042;52.136;5.584;2022-07-30T08:05:01;20.00;99.90
23723;DHT22;12042;52.136;5.584;2022-07-30T08:07:28;20.40;99.90
23723;DHT22;12042;52.136;5.584;2022-07-30T08:09:54;20.70;99.90
23723;DHT22;12042;52.136;5.584;2022-07-30T08:12:20;21.00;99.90
23723;DHT22;12042;52.136;5.584;2022-07-30T08:14:46;21.30;99.90
23723;DHT22;12042;52.136;5.584;2022-07-30T08:17:11;21.50;99.90
23723;DHT22;12042;52.136;5.584;2022-07-30T08:19:37;21.60;99.90
23723;DHT22;12042;52.136;5.584;2022-07-30T08:22:02;21.90;99.90
23723;DHT22;12042;52.136;5.584;2022-07-30T08:24:28;22.00;99.90
23723;DHT22;12042;52.136;5.584;2022-07-30T08:26:54;22.20;99.90
23723;DHT22;12042;52.136;5.584;2022-07-30T08:29:19;22.10;99.90
23723;DHT22;12042;52.136;5.584;2022-07-30T08:31:45;22.30;99.90
23723;DHT22;12042;52.136;5.584;2022-07-30T08:34:10;21.80;99.90
23723;DHT22;12042;52.136;5.584;2022-07-30T08:36:37;21.70;99.90
23723;DHT22;12042;52.136;5.584;2022-07-30T08:39:03;21.80;99.90
23723;DHT22;12042;52.136;5.584;2022-07-30T08:41:29;21.90;99.90
23723;DHT22;12042;52.136;5.584;2022-07-30T08:43:56;21.90;99.90
23723;DHT22;12042;52.136;5.584;2022-07-30T08:46:27;21.90;99.90
23723;DHT22;12042;52.136;5.584;2022-07-30T08:48:54;22.10;99.90
23723;DHT22;12042;52.136;5.584;2022-07-30T08:51:21;22.20;99.90
23723;DHT22;12042;52.136;5.584;2022-07-30T08:53:47;22.60;99.90
23723;DHT22;12042;52.136;5.584;2022-07-30T08:56:14;22.90;99.90
23723;DHT22;12042;52.136;5.584;2022-07-30T08:58:40;23.30;99.90
23723;DHT22;12042;52.136;5.584;2022-07-30T09:01:06;23.40;99.90
23723;DHT22;12042;52.136;5.584;2022-07-30T09:03:32;23.40;99.90
23723;DHT22;12042;52.136;5.584;2022-07-30T09:06:00;23.60;99.90
23723;DHT22;12042;52.136;5.584;2022-07-30T09:08:25;23.70;99.90
23723;DHT22;12042;52.136;5.584;2022-07-30T09:10:51;24.00;99.90
23723;DHT22;12042;52.136;5.584;2022-07-30T09:13:34;24.00;99.90
23723;DHT22;12042;52.136;5.584;2022-07-30T09:16:01;24.00;99.90
23723;DHT22;12042;52.136;5.584;2022-07-30T09:18:35;24.30;99.90
23723;DHT22;12042;52.136;5.584;2022-07-30T09:21:17;24.60;99.90
23723;DHT22;12042;52.136;5.584;2022-07-30T09:24:04;24.50;99.90
23723;DHT22;12042;52.136;5.584;2022-07-30T09:26:31;24.50;99.90
23723;DHT22;12042;52.136;5.584;2022-07-30T09:29:26;24.30;99.90
23723;DHT22;12042;52.136;5.584;2022-07-30T09:36:51;25.20;99.90
23723;DHT22;12042;52.136;5.584;2022-07-30T09:41:59;25.20;99.90
23723;DHT22;12042;52.136;5.584;2022-07-30T09:44:26;25.20;99.90
23723;DHT22;12042;52.136;5.584;2022-07-30T09:46:52;25.10;99.90
23723;DHT22;12042;52.136;5.584;2022-07-30T09:49:24;25.10;99.90
23723;DHT22;12042;52.136;5.584;2022-07-30T09:51:51;25.10;99.90
23723;DHT22;12042;52.136;5.584;2022-07-30T09:54:17;25.20;99.90
23723;DHT22;12042;52.136;5.584;2022-07-30T09:56:42;25.30;99.90
23723;DHT22;12042;52.136;5.584;2022-07-30T09:59:29;25.40;99.90
23723;DHT22;12042;52.136;5.584;2022-07-30T10:01:57;25.30;99.90
23723;DHT22;12042;52.136;5.584;2022-07-30T10:04:24;25.30;99.90
23723;DHT22;12042;52.136;5.584;2022-07-30T10:06:50;25.60;99.90
23723;DHT22;12042;52.136;5.584;2022-07-30T10:09:33;25.30;99.90
23723;DHT22;12042;52.136;5.584;2022-07-30T10:12:02;25.50;99.90
23723;DHT22;12042;52.136;5.584;2022-07-30T10:14:34;25.70;99.90
23723;DHT22;12042;52.136;5.584;2022-07-30T10:17:00;25.70;99.90
23723;DHT22;12042;52.136;5.584;2022-07-30T10:19:26;25.70;99.90
23723;DHT22;12042;52.136;5.584;2022-07-30T10:21:53;25.70;99.90
23723;DHT22;12042;52.136;5.584;2022-07-30T10:24:22;26.00;99.90
23723;DHT22;12042;52.136;5.584;2022-07-30T10:26:49;26.00;99.90
23723;DHT22;12042;52.136;5.584;2022-07-30T10:29:16;26.30;99.90
23723;DHT22;12042;52.136;5.584;2022-07-30T10:31:46;26.40;99.90
23723;DHT22;12042;52.136;5.584;2022-07-30T10:34:13;26.50;99.90
23723;DHT22;12042;52.136;5.584;2022-07-30T10:36:44;26.50;99.90
23723;DHT22;12042;52.136;5.584;2022-07-30T10:39:15;26.90;99.90
23723;DHT22;12042;52.136;5.584;2022-07-30T10:42:13;26.90;99.90
23723;DHT22;12042;52.136;5.584;2022-07-30T10:45:00;26.80;99.90
23723;DHT22;12042;52.136;5.584;2022-07-30T10:47:28;27.00;99.90
23723;DHT22;12042;52.136;5.584;2022-07-30T10:50:15;27.00;99.90
23723;DHT22;12042;52.136;5.584;2022-07-30T10:52:58;27.30;99.90
23723;DHT22;12042;52.136;5.584;2022-07-30T10:55:33;27.30;99.90
23723;DHT22;12042;52.136;5.584;2022-07-30T10:58:12;27.40;99.90
23723;DHT22;12042;52.136;5.584;2022-07-30T11:05:48;27.40;99.90
23723;DHT22;12042;52.136;5.584;2022-07-30T11:08:34;27.40;99.90
23723;DHT22;12042;52.136;5.584;2022-07-30T11:11:02;27.40;99.90
23723;DHT22;12042;52.136;5.584;2022-07-30T11:13:54;27.30;99.90
23723;DHT22;12042;52.136;5.584;2022-07-30T11:16:56;27.40;99.90
23723;DHT22;12042;52.136;5.584;2022-07-30T11:19:15;27.40;99.90
23723;DHT22;12042;52.136;5.584;2022-07-30T11:21:43;27.20;99.90
23723;DHT22;12042;52.136;5.584;2022-07-30T11:27:06;27.00;99.90
23723;DHT22;12042;52.136;5.584;2022-07-30T11:29:36;27.10;99.90
23723;DHT22;12042;52.136;5.584;2022-07-30T11:32:31;27.10;99.90
23723;DHT22;12042;52.136;5.584;2022-07-30T11:35:11;27.00;99.90
23723;DHT22;12042;52.136;5.584;2022-07-30T11:38:06;27.10;99.90
23723;DHT22;12042;52.136;5.584;2022-07-30T11:43:28;27.30;99.90
23723;DHT22;12042;52.136;5.584;2022-07-30T11:46:14;27.40;99.90
23723;DHT22;12042;52.136;5.584;2022-07-30T11:48:57;27.50;99.90
23723;DHT22;12042;52.136;5.584;2022-07-30T11:51:44;27.40;99.90
23723;DHT22;12042;52.136;5.584;2022-07-30T11:54:10;27.40;99.90
23723;DHT22;12042;52.136;5.584;2022-07-30T11:56:46;27.70;99.90
23723;DHT22;12042;52.136;5.584;2022-07-30T11:59:12;27.90;99.90
23723;DHT22;12042;52.136;5.584;2022-07-30T12:01:38;28.20;99.90
23723;DHT22;12042;52.136;5.584;2022-07-30T12:04:04;28.50;99.90
23723;DHT22;12042;52.136;5.584;2022-07-30T12:06:30;28.60;99.90
23723;DHT22;12042;52.136;5.584;2022-07-30T12:08:57;28.80;99.90
23723;DHT22;12042;52.136;5.584;2022-07-30T12:11:22;28.90;99.90
23723;DHT22;12042;52.136;5.584;2022-07-30T12:13:59;28.90;99.90
23723;DHT22;12042;52.136;5.584;2022-07-30T12:16:26;29.10;99.90
23723;DHT22;12042;52.136;5.584;2022-07-30T12:18:52;28.70;99.90
23723;DHT22;12042;52.136;5.584;2022-07-30T12:21:18;28.50;99.90
23723;DHT22;12042;52.136;5.584;2022-07-30T12:23:55;28.40;99.90
23723;DHT22;12042;52.136;5.584;2022-07-30T12:26:23;28.40;99.90
23723;DHT22;12042;52.136;5.584;2022-07-30T12:28:49;28.40;99.90
23723;DHT22;12042;52.136;5.584;2022-07-30T12:31:15;28.60;99.90
23723;DHT22;12042;52.136;5.584;2022-07-30T12:33:41;28.60;99.90
23723;DHT22;12042;52.136;5.584;2022-07-30T12:36:07;28.70;99.90
23723;DHT22;12042;52.136;5.584;2022-07-30T12:38:44;28.70;99.90
23723;DHT22;12042;52.136;5.584;2022-07-30T12:41:12;28.40;99.90
23723;DHT22;12042;52.136;5.584;2022-07-30T12:46:25;28.40;99.90
23723;DHT22;12042;52.136;5.584;2022-07-30T12:48:56;28.00;99.90
23723;DHT22;12042;52.136;5.584;2022-07-30T12:51:26;28.00;99.90
23723;DHT22;12042;52.136;5.584;2022-07-30T12:53:54;28.00;99.90
23723;DHT22;12042;52.136;5.584;2022-07-30T12:56:22;28.00;99.90
23723;DHT22;12042;52.136;5.584;2022-07-30T12:58:49;27.80;99.90
23723;DHT22;12042;52.136;5.584;2022-07-30T13:01:15;27.90;99.90
23723;DHT22;12042;52.136;5.584;2022-07-30T13:03:41;27.80;99.90
23723;DHT22;12042;52.136;5.584;2022-07-30T13:06:13;27.80;99.90
23723;DHT22;12042;52.136;5.584;2022-07-30T13:08:56;27.40;99.90
23723;DHT22;12042;52.136;5.584;2022-07-30T13:11:36;27.50;99.90
23723;DHT22;12042;52.136;5.584;2022-07-30T13:14:02;27.50;99.90
23723;DHT22;12042;52.136;5.584;2022-07-30T13:16:31;27.60;99.90
23723;DHT22;12042;52.136;5.584;2022-07-30T13:18:56;27.70;99.90
23723;DHT22;12042;52.136;5.584;2022-07-30T13:21:22;27.90;99.90
23723;DHT22;12042;52.136;5.584;2022-07-30T13:23:48;27.90;99.90
23723;DHT22;12042;52.136;5.584;2022-07-30T13:26:14;28.00;99.90
23723;DHT22;12042;52.136;5.584;2022-07-30T13:28:40;28.40;99.90
23723;DHT22;12042;52.136;5.584;2022-07-30T13:31:06;28.40;99.90
23723;DHT22;12042;52.136;5.584;2022-07-30T13:33:33;28.50;99.90
23723;DHT22;12042;52.136;5.584;2022-07-30T13:35:59;28.70;99.90
23723;DHT22;12042;52.136;5.584;2022-07-30T13:38:25;28.50;99.90
23723;DHT22;12042;52.136;5.584;2022-07-30T13:40:51;28.50;99.90
23723;DHT22;12042;52.136;5.584;2022-07-30T13:43:16;28.30;99.90
23723;DHT22;12042;52.136;5.584;2022-07-30T13:45:42;28.50;99.90
23723;DHT22;12042;52.136;5.584;2022-07-30T13:48:08;28.80;99.90
23723;DHT22;12042;52.136;5.584;2022-07-30T13:50:34;28.90;99.90
23723;DHT22;12042;52.136;5.584;2022-07-30T13:52:59;29.10;99.90
23723;DHT22;12042;52.136;5.584;2022-07-30T13:55:25;29.50;99.90
23723;DHT22;12042;52.136;5.584;2022-07-30T13:57:51;29.40;99.90
23723;DHT22;12042;52.136;5.584;2022-07-30T14:00:16;29.40;99.90
23723;DHT22;12042;52.136;5.584;2022-07-30T14:02:42;29.50;99.90
23723;DHT22;12042;52.136;5.584;2022-07-30T14:05:08;29.70;99.90
23723;DHT22;12042;52.136;5.584;2022-07-30T14:07:34;29.90;99.90
23723;DHT22;12042;52.136;5.584;2022-07-30T14:10:01;30.20;99.90
23723;DHT22;12042;52.136;5.584;2022-07-30T14:12:27;30.00;99.90
23723;DHT22;12042;52.136;5.584;2022-07-30T14:14:52;29.90;99.90
23723;DHT22;12042;52.136;5.584;2022-07-30T14:17:18;30.00;99.90
23723;DHT22;12042;52.136;5.584;2022-07-30T14:19:43;29.30;99.90
23723;DHT22;12042;52.136;5.584;2022-07-30T14:22:09;29.20;99.90
23723;DHT22;12042;52.136;5.584;2022-07-30T14:24:34;29.20;99.90
23723;DHT22;12042;52.136;5.584;2022-07-30T14:27:00;28.90;99.90
23723;DHT22;12042;52.136;5.584;2022-07-30T14:29:26;28.50;99.90
23723;DHT22;12042;52.136;5.584;2022-07-30T14:31:52;28.30;99.90
23723;DHT22;12042;52.136;5.584;2022-07-30T14:34:18;28.30;99.90
23723;DHT22;12042;52.136;5.584;2022-07-30T14:36:43;28.00;99.90
23723;DHT22;12042;52.136;5.584;2022-07-30T14:39:09;27.70;99.90
23723;DHT22;12042;52.136;5.584;2022-07-30T14:41:35;27.50;99.90
23723;DHT22;12042;52.136;5.584;2022-07-30T14:44:04;27.60;99.90
23723;DHT22;12042;52.136;5.584;2022-07-30T14:46:30;27.30;99.90
23723;DHT22;12042;52.136;5.584;2022-07-30T14:48:56;27.30;99.90
23723;DHT22;12042;52.136;5.584;2022-07-30T14:51:21;27.40;99.90
23723;DHT22;12042;52.136;5.584;2022-07-30T14:53:47;27.20;99.90
23723;DHT22;12042;52.136;5.584;2022-07-30T14:56:15;27.30;99.90
23723;DHT22;12042;52.136;5.584;2022-07-30T14:58:41;27.20;99.90
23723;DHT22;12042;52.136;5.584;2022-07-30T15:01:06;27.30;99.90
23723;DHT22;12042;52.136;5.584;2022-07-30T15:03:35;27.30;99.90
23723;DHT22;12042;52.136;5.584;2022-07-30T15:06:01;27.30;99.90
23723;DHT22;12042;52.136;5.584;2022-07-30T15:08:28;27.20;99.90
23723;DHT22;12042;52.136;5.584;2022-07-30T15:10:56;27.40;99.90
23723;DHT22;12042;52.136;5.584;2022-07-30T15:13:23;27.30;99.90
23723;DHT22;12042;52.136;5.584;2022-07-30T15:15:50;27.10;99.90
23723;DHT22;12042;52.136;5.584;2022-07-30T15:18:15;27.10;99.90
23723;DHT22;12042;52.136;5.584;2022-07-30T15:20:41;27.10;99.90
23723;DHT22;12042;52.136;5.584;2022-07-30T15:23:07;27.10;99.90
23723;DHT22;12042;52.136;5.584;2022-07-30T15:25:32;27.10;99.90
23723;DHT22;12042;52.136;5.584;2022-07-30T15:27:58;27.00;99.90
23723;DHT22;12042;52.136;5.584;2022-07-30T15:30:23;27.20;99.90
23723;DHT22;12042;52.136;5.584;2022-07-30T15:32:50;27.00;99.90
23723;DHT22;12042;52.136;5.584;2022-07-30T15:35:16;26.90;99.90
23723;DHT22;12042;52.136;5.584;2022-07-30T15:37:42;27.00;99.90
23723;DHT22;12042;52.136;5.584;2022-07-30T15:40:08;27.00;99.90
23723;DHT22;12042;52.136;5.584;2022-07-30T15:42:44;26.90;99.90
23723;DHT22;12042;52.136;5.584;2022-07-30T15:45:10;27.10;99.90
23723;DHT22;12042;52.136;5.584;2022-07-30T15:47:35;26.90;99.90
23723;DHT22;12042;52.136;5.584;2022-07-30T15:50:02;26.90;99.90
23723;DHT22;12042;52.136;5.584;2022-07-30T15:52:28;26.90;99.90
23723;DHT22;12042;52.136;5.584;2022-07-30T15:54:53;27.30;99.90
23723;DHT22;12042;52.136;5.584;2022-07-30T15:57:19;27.30;99.90
23723;DHT22;12042;52.136;5.584;2022-07-30T15:59:44;27.40;99.90
23723;DHT22;12042;52.136;5.584;2022-07-30T16:02:10;27.50;99.90
23723;DHT22;12042;52.136;5.584;2022-07-30T16:04:36;27.70;99.90
23723;DHT22;12042;52.136;5.584;2022-07-30T16:07:02;28.00;99.90
23723;DHT22;12042;52.136;5.584;2022-07-30T16:09:29;27.80;99.90
23723;DHT22;12042;52.136;5.584;2022-07-30T16:11:55;27.90;99.90
23723;DHT22;12042;52.136;5.584;2022-07-30T16:14:21;28.00;99.90
23723;DHT22;12042;52.136;5.584;2022-07-30T16:16:47;28.00;99.90
23723;DHT22;12042;52.136;5.584;2022-07-30T16:19:12;28.00;99.90
23723;DHT22;12042;52.136;5.584;2022-07-30T16:21:38;27.80;99.90